Time;durP1;ratioP1;P1;durP2;ratioP2;P2;SDS_P1;SDS_P2;PMS_P1;PMS_P2;Temp;Humidity;BMP_temperature;BMP_pressure;BME280_temperature;BME280_humidity;BME280_pressure;Samples;Min_cycle;Max_cycle;Signal;HPM_P1;HPM_P2
2021/09/05 00:02:09;;;;;;;;;;;;;;;14.48;77.18;101971.94;5097273;28;19907;-37
2021/09/05 00:04:35;;;;;;;;;;;;;;;14.46;77.06;101967.75;5097102;28;19908;-36
2021/09/05 00:07:00;;;;;;;;;;;;;;;14.42;76.72;101970.94;5097784;28;20010;-36
2021/09/05 00:09:25;;;;;;;;;;;;;;;14.40;77.19;101974.94;5095613;28;19939;-36
2021/09/05 00:11:50;;;;;;;;;;;;;;;14.35;77.30;101972.09;5097161;28;19919;-36
2021/09/05 00:14:15;;;;;;;;;;;;;;;14.32;76.99;101978.81;5097408;28;19912;-36
2021/09/05 00:16:41;;;;;;;;;;;;;;;14.29;77.24;101972.97;5097188;28;20287;-36
2021/09/05 00:19:06;;;;;;;;;;;;;;;14.25;77.08;101977.22;5096785;28;19962;-36
2021/09/05 00:21:31;;;;;;;;;;;;;;;14.21;77.42;101979.56;5097621;28;20037;-36
2021/09/05 00:23:57;;;;;;;;;;;;;;;14.17;77.47;101981.91;5096805;28;19907;-36
2021/09/05 00:26:22;;;;;;;;;;;;;;;14.16;77.46;101976.72;5097260;28;19908;-36
2021/09/05 00:28:47;;;;;;;;;;;;;;;14.13;77.14;101975.25;5097384;28;19915;-36
2021/09/05 00:31:12;;;;;;;;;;;;;;;14.10;77.19;101975.72;5096949;28;19908;-36
2021/09/05 00:33:37;;;;;;;;;;;;;;;14.07;77.34;101975.34;5096489;28;19908;-36
2021/09/05 00:36:03;;;;;;;;;;;;;;;14.04;77.61;101982.06;5097365;28;20045;-36
2021/09/05 00:38:28;;;;;;;;;;;;;;;14.01;77.39;101977.09;5096421;28;20263;-36
2021/09/05 00:40:53;;;;;;;;;;;;;;;13.97;77.96;101977.75;5097003;28;19953;-36
2021/09/05 00:43:18;;;;;;;;;;;;;;;13.95;77.41;101977.13;5096622;28;19965;-36
2021/09/05 00:45:44;;;;;;;;;;;;;;;13.91;77.48;101974.88;5096140;28;19918;-36
2021/09/05 00:48:09;;;;;;;;;;;;;;;13.89;77.48;101974.28;5095993;28;19912;-36
2021/09/05 00:50:35;;;;;;;;;;;;;;;13.87;77.63;101973.69;5096251;28;19908;-36
2021/09/05 00:53:00;;;;;;;;;;;;;;;13.84;77.70;101970.56;5095962;28;19908;-36
2021/09/05 00:55:25;;;;;;;;;;;;;;;13.81;77.44;101977.31;5096461;28;19954;-36
2021/09/05 00:57:51;;;;;;;;;;;;;;;13.79;77.65;101973.13;5096085;28;19912;-36
2021/09/05 01:00:19;;;;;;;;;;;;;;;13.74;77.86;101971.09;5096449;28;19908;-36
2021/09/05 01:02:44;;;;;;;;;;;;;;;13.71;77.89;101971.53;5096823;28;19908;-36
2021/09/05 01:05:10;;;;;;;;;;;;;;;13.70;77.89;101963.59;5096203;28;19923;-36
2021/09/05 01:07:35;;;;;;;;;;;;;;;13.68;77.78;101971.16;5095309;28;20206;-36
2021/09/05 01:10:01;;;;;;;;;;;;;;;13.67;77.92;101964.06;5095952;28;19908;-36
2021/09/05 01:12:26;;;;;;;;;;;;;;;13.65;78.17;101972.44;5096165;28;19908;-37
2021/09/05 01:14:52;;;;;;;;;;;;;;;13.64;78.32;101968.88;5095905;28;19908;-36
2021/09/05 01:17:17;;;;;;;;;;;;;;;13.65;78.63;101970.53;5096627;28;19942;-36
2021/09/05 01:19:42;;;;;;;;;;;;;;;13.63;77.82;101958.25;5096128;28;19953;-36
2021/09/05 01:22:07;;;;;;;;;;;;;;;13.62;78.53;101962.84;5095981;28;20348;-36
2021/09/05 01:24:33;;;;;;;;;;;;;;;13.56;79.30;101963.72;5096284;28;19958;-36
2021/09/05 01:26:58;;;;;;;;;;;;;;;13.56;78.86;101961.00;5096011;28;19908;-36
2021/09/05 01:29:23;;;;;;;;;;;;;;;13.61;78.81;101960.34;5095695;28;19907;-36
2021/09/05 01:31:50;;;;;;;;;;;;;;;13.63;78.65;101953.63;5096151;28;19962;-36
2021/09/05 01:34:20;;;;;;;;;;;;;;;13.65;79.21;101950.69;5095606;28;19951;-36
2021/09/05 01:36:45;;;;;;;;;;;;;;;13.65;79.08;101956.94;5095547;28;20314;-36
2021/09/05 01:39:12;;;;;;;;;;;;;;;13.64;78.90;101954.47;5095285;28;19914;-36
2021/09/05 01:41:37;;;;;;;;;;;;;;;13.64;78.92;101960.72;5095868;28;19908;-36
2021/09/05 01:44:07;;;;;;;;;;;;;;;13.65;78.82;101961.56;5095138;28;20061;-36
2021/09/05 01:46:32;;;;;;;;;;;;;;;13.65;78.88;101965.09;5095713;28;19999;-36
2021/09/05 01:48:58;;;;;;;;;;;;;;;13.66;80.16;101965.94;5095255;28;20008;-36
2021/09/05 01:51:23;;;;;;;;;;;;;;;13.63;81.31;101964.50;5095576;28;19908;-36
2021/09/05 01:53:48;;;;;;;;;;;;;;;13.61;80.17;101963.88;5095133;28;19908;-36
2021/09/05 01:56:13;;;;;;;;;;;;;;;13.60;79.36;101973.09;5095206;28;19908;-36
2021/09/05 01:58:39;;;;;;;;;;;;;;;13.62;79.18;101975.59;5095494;28;19916;-36
2021/09/05 02:01:04;;;;;;;;;;;;;;;13.60;79.37;101969.53;5095164;28;19908;-36
2021/09/05 02:03:29;;;;;;;;;;;;;;;13.56;80.18;101980.03;5094668;28;20283;-36
2021/09/05 02:05:54;;;;;;;;;;;;;;;13.54;79.90;101976.72;5094930;28;19911;-36
2021/09/05 02:08:19;;;;;;;;;;;;;;;13.51;79.40;101979.88;5095583;28;19958;-36
2021/09/05 02:10:45;;;;;;;;;;;;;;;13.50;79.31;101993.69;5095080;28;19987;-36
2021/09/05 02:13:10;;;;;;;;;;;;;;;13.46;79.40;101984.31;5094886;28;19916;-36
2021/09/05 02:15:35;;;;;;;;;;;;;;;13.44;79.01;101984.53;5095284;28;19908;-36
2021/09/05 02:18:00;;;;;;;;;;;;;;;13.43;79.57;101995.66;5094152;28;19931;-36
2021/09/05 02:20:26;;;;;;;;;;;;;;;13.42;79.26;101991.25;5094665;28;20002;-36
2021/09/05 02:22:51;;;;;;;;;;;;;;;13.40;79.36;101986.03;5094547;28;19912;-36
2021/09/05 02:25:16;;;;;;;;;;;;;;;13.36;79.08;101992.97;5094585;28;20344;-36
2021/09/05 02:27:42;;;;;;;;;;;;;;;13.33;79.55;101988.00;5094240;28;19908;-36
2021/09/05 02:30:07;;;;;;;;;;;;;;;13.29;79.38;101984.88;5094630;28;20328;-36
2021/09/05 02:32:32;;;;;;;;;;;;;;;13.27;79.19;101992.41;5094828;28;20383;-36
2021/09/05 02:34:57;;;;;;;;;;;;;;;13.25;80.26;101990.97;5094628;28;20425;-36
2021/09/05 02:37:23;;;;;;;;;;;;;;;13.25;79.75;101990.97;5094015;28;19958;-36
2021/09/05 02:39:48;;;;;;;;;;;;;;;13.22;79.62;101986.78;5093845;28;19943;-36
2021/09/05 02:42:13;;;;;;;;;;;;;;;13.19;79.38;101989.94;5093386;28;19915;-36
2021/09/05 02:44:38;;;;;;;;;;;;;;;13.16;79.24;101982.22;5093932;28;19965;-36
2021/09/05 02:47:04;;;;;;;;;;;;;;;13.14;79.64;101979.72;5094029;28;19911;-36
2021/09/05 02:49:29;;;;;;;;;;;;;;;13.08;80.63;101988.78;5094152;28;19912;-36
2021/09/05 02:51:54;;;;;;;;;;;;;;;13.05;79.58;101986.47;5094039;28;20001;-36
2021/09/05 02:54:20;;;;;;;;;;;;;;;13.04;79.96;101989.44;5094010;28;20006;-36
2021/09/05 02:56:45;;;;;;;;;;;;;;;13.03;79.81;101990.44;5094659;28;19908;-36
2021/09/05 02:59:10;;;;;;;;;;;;;;;13.02;79.86;101992.34;5093706;28;19955;-36
2021/09/05 03:01:35;;;;;;;;;;;;;;;13.00;79.69;101986.31;5094165;28;20359;-36
2021/09/05 03:04:01;;;;;;;;;;;;;;;12.98;80.24;101985.72;5093864;28;19915;-36
2021/09/05 03:06:26;;;;;;;;;;;;;;;12.96;79.90;101985.06;5094281;28;19908;-36
2021/09/05 03:08:51;;;;;;;;;;;;;;;12.94;79.73;101976.34;5094086;28;20336;-36
2021/09/05 03:11:17;;;;;;;;;;;;;;;12.92;79.81;101983.84;5094314;28;19946;-36
2021/09/05 03:13:45;;;;;;;;;;;;;;;12.90;79.69;101983.25;5093544;28;20275;-36
2021/09/05 03:16:10;;;;;;;;;;;;;;;12.86;79.88;101977.41;5093601;28;19908;-36
2021/09/05 03:18:35;;;;;;;;;;;;;;;12.83;79.94;101991.44;5093575;28;20360;-36
2021/09/05 03:21:01;;;;;;;;;;;;;;;12.81;79.92;101989.97;5093664;28;19961;-36
2021/09/05 03:23:26;;;;;;;;;;;;;;;12.78;79.81;101993.13;5093447;28;19908;-36
2021/09/05 03:25:52;;;;;;;;;;;;;;;12.76;80.00;101987.91;5094077;28;19907;-36
2021/09/05 03:28:17;;;;;;;;;;;;;;;12.73;80.14;101985.63;5093480;28;19962;-36
2021/09/05 03:30:42;;;;;;;;;;;;;;;12.71;80.14;101985.03;5093018;28;19908;-36
2021/09/05 03:33:07;;;;;;;;;;;;;;;12.72;80.17;101994.81;5093968;28;19996;-36
2021/09/05 03:35:33;;;;;;;;;;;;;;;12.72;80.80;101980.44;5093522;28;19908;-36
2021/09/05 03:37:58;;;;;;;;;;;;;;;12.69;80.55;101992.56;5093856;28;19908;-36
2021/09/05 03:40:23;;;;;;;;;;;;;;;12.67;81.20;101989.22;5093320;28;20340;-36
2021/09/05 03:42:48;;;;;;;;;;;;;;;12.67;80.88;101988.38;5092343;28;20356;-36
2021/09/05 03:45:13;;;;;;;;;;;;;;;12.68;80.56;101987.34;5093226;28;19927;-36
2021/09/05 03:47:39;;;;;;;;;;;;;;;12.67;81.37;101989.22;5093307;28;19912;-36
2021/09/05 03:50:04;;;;;;;;;;;;;;;12.62;80.82;101989.88;5094363;28;19915;-36
2021/09/05 03:52:32;;;;;;;;;;;;;;;12.60;81.01;101994.69;5093389;28;19989;-36
2021/09/05 03:54:57;;;;;;;;;;;;;;;12.61;80.68;101987.38;5093256;28;19908;-36
2021/09/05 03:57:22;;;;;;;;;;;;;;;12.58;81.19;101988.63;5093344;28;19908;-36
2021/09/05 03:59:47;;;;;;;;;;;;;;;12.57;81.04;101992.41;5093448;28;19953;-36
2021/09/05 04:02:13;;;;;;;;;;;;;;;12.55;80.72;101997.22;5093553;28;19908;-36
2021/09/05 04:04:38;;;;;;;;;;;;;;;12.53;80.49;101991.16;5093092;28;19908;-36
2021/09/05 04:07:04;;;;;;;;;;;;;;;12.51;80.64;101990.56;5093684;28;19909;-36
2021/09/05 04:12:15;;;;;;;;;;;;;;;12.48;80.92;101999.13;5093530;28;19957;-36
2021/09/05 04:14:40;;;;;;;;;;;;;;;12.42;80.47;101997.28;5093298;28;20340;-36
2021/09/05 04:17:05;;;;;;;;;;;;;;;12.39;80.58;102003.13;5094212;28;19927;-36
2021/09/05 04:19:30;;;;;;;;;;;;;;;12.35;80.69;102002.72;5093060;28;19962;-36
2021/09/05 04:21:56;;;;;;;;;;;;;;;12.34;80.53;102009.19;5093277;28;19954;-36
2021/09/05 04:24:21;;;;;;;;;;;;;;;12.33;80.79;102003.97;5093050;28;20263;-36
2021/09/05 04:26:46;;;;;;;;;;;;;;;12.31;80.62;102000.66;5093247;28;20344;-36
2021/09/05 04:29:12;;;;;;;;;;;;;;;12.32;80.70;102002.31;5092912;28;20408;-36
2021/09/05 04:31:37;;;;;;;;;;;;;;;12.30;80.83;101997.13;5093145;28;19908;-36
2021/09/05 04:34:02;;;;;;;;;;;;;;;12.27;80.52;102002.97;5092995;28;19908;-36
2021/09/05 04:36:27;;;;;;;;;;;;;;;12.23;80.79;102009.84;5093172;28;19908;-36
2021/09/05 04:38:52;;;;;;;;;;;;;;;12.19;80.67;102015.91;5092775;28;19922;-36
2021/09/05 04:41:18;;;;;;;;;;;;;;;12.13;80.65;102006.75;5094841;28;20241;-36
2021/09/05 04:43:43;;;;;;;;;;;;;;;12.10;82.33;102013.47;5096547;28;19915;-36
2021/09/05 04:46:08;;;;;;;;;;;;;;;12.06;81.49;102014.09;5096781;28;19973;-36
2021/09/05 04:48:33;;;;;;;;;;;;;;;12.04;81.32;102021.59;5096835;28;19954;-36
2021/09/05 04:50:58;;;;;;;;;;;;;;;12.02;81.18;102016.38;5096417;28;19912;-36
2021/09/05 04:53:24;;;;;;;;;;;;;;;12.00;81.18;102023.88;5096061;28;20275;-36
2021/09/05 04:55:49;;;;;;;;;;;;;;;11.96;80.99;102025.38;5096669;28;20262;-36
2021/09/05 04:58:14;;;;;;;;;;;;;;;11.94;80.99;102030.16;5096244;28;19908;-36
2021/09/05 05:00:39;;;;;;;;;;;;;;;11.91;81.07;102027.88;5096534;28;20365;-36
2021/09/05 05:03:04;;;;;;;;;;;;;;;11.89;81.31;102029.13;5096190;28;19961;-36
2021/09/05 05:05:30;;;;;;;;;;;;;;;11.84;82.94;102027.03;5096259;28;19993;-36
2021/09/05 05:07:55;;;;;;;;;;;;;;;11.78;83.42;102027.88;5096414;28;19907;-36
2021/09/05 05:10:21;;;;;;;;;;;;;;;11.75;82.74;102022.84;5095749;28;19908;-36
2021/09/05 05:12:46;;;;;;;;;;;;;;;11.73;82.51;102020.38;5096351;28;19912;-36
2021/09/05 05:15:12;;;;;;;;;;;;;;;11.75;82.01;102020.13;5096789;28;19973;-36
2021/09/05 05:17:38;;;;;;;;;;;;;;;11.76;81.89;102025.38;5096393;28;20298;-36
2021/09/05 05:20:03;;;;;;;;;;;;;;;11.77;82.14;102023.50;5095431;28;19908;-36
2021/09/05 05:22:28;;;;;;;;;;;;;;;11.77;82.08;102026.22;5095437;28;19965;-36
2021/09/05 05:24:54;;;;;;;;;;;;;;;11.79;81.70;102024.94;5095811;28;19908;-36
2021/09/05 05:27:19;;;;;;;;;;;;;;;11.84;81.64;102024.34;5096055;28;19911;-36
2021/09/05 05:29:44;;;;;;;;;;;;;;;11.87;82.83;102023.09;5095631;28;19961;-36
2021/09/05 05:32:09;;;;;;;;;;;;;;;11.89;82.45;102026.41;5096158;28;19931;-36
2021/09/05 05:34:34;;;;;;;;;;;;;;;11.95;82.44;102020.97;5095609;28;20367;-36
2021/09/05 05:37:03;;;;;;;;;;;;;;;11.98;83.09;102028.69;5095304;28;19953;-36
2021/09/05 05:39:28;;;;;;;;;;;;;;;12.06;82.45;102028.47;5095849;28;19908;-36
2021/09/05 05:41:53;;;;;;;;;;;;;;;12.14;82.25;102034.69;5095446;28;20382;-36
2021/09/05 05:44:19;;;;;;;;;;;;;;;12.18;82.55;102033.25;5095827;28;19919;-36
2021/09/05 05:46:44;;;;;;;;;;;;;;;12.24;83.20;102035.09;5096046;28;19908;-36
2021/09/05 05:49:09;;;;;;;;;;;;;;;12.21;84.04;102030.13;5095681;28;19931;-36
2021/09/05 05:51:34;;;;;;;;;;;;;;;12.25;82.94;102036.75;5095085;28;19937;-36
2021/09/05 05:54:00;;;;;;;;;;;;;;;12.32;83.64;102037.59;5094656;28;20351;-36
2021/09/05 05:56:25;;;;;;;;;;;;;;;12.38;82.66;102037.56;5095414;28;20255;-36
2021/09/05 05:58:50;;;;;;;;;;;;;;;12.49;82.51;102041.50;5095012;28;19908;-36
2021/09/05 06:01:15;;;;;;;;;;;;;;;12.59;82.18;102049.16;5095576;28;19907;-36
2021/09/05 06:03:40;;;;;;;;;;;;;;;12.66;81.79;102043.72;5095391;28;19912;-36
2021/09/05 06:06:06;;;;;;;;;;;;;;;12.74;81.78;102046.19;5095466;28;19953;-36
2021/09/05 06:08:31;;;;;;;;;;;;;;;12.80;81.66;102050.75;5095726;28;19972;-36
2021/09/05 06:10:56;;;;;;;;;;;;;;;12.83;81.46;102051.16;5094944;28;19908;-36
2021/09/05 06:13:21;;;;;;;;;;;;;;;12.89;81.21;102055.72;5094884;28;19923;-36
2021/09/05 06:15:46;;;;;;;;;;;;;;;12.93;81.49;102053.38;5094831;28;19912;-36
2021/09/05 06:18:12;;;;;;;;;;;;;;;12.96;81.32;102050.25;5094776;28;19912;-36
2021/09/05 06:20:37;;;;;;;;;;;;;;;13.01;81.28;102053.13;5094243;28;19907;-36
2021/09/05 06:23:02;;;;;;;;;;;;;;;13.04;81.30;102055.44;5094728;28;19956;-36
2021/09/05 06:25:27;;;;;;;;;;;;;;;13.07;82.14;102052.25;5094224;28;20371;-36
2021/09/05 06:27:52;;;;;;;;;;;;;;;13.06;82.06;102056.03;5094267;28;20294;-36
2021/09/05 06:30:18;;;;;;;;;;;;;;;13.07;82.44;102063.13;5094244;28;20340;-36
2021/09/05 06:32:43;;;;;;;;;;;;;;;13.08;82.49;102059.38;5094713;28;19908;-36
2021/09/05 06:35:08;;;;;;;;;;;;;;;13.10;82.55;102068.13;5094228;28;20357;-36
2021/09/05 06:37:33;;;;;;;;;;;;;;;13.13;82.34;102072.31;5093948;28;19959;-36
2021/09/05 06:39:59;;;;;;;;;;;;;;;13.13;83.03;102073.13;5094113;28;20011;-36
2021/09/05 06:42:24;;;;;;;;;;;;;;;13.18;82.44;102074.38;5094300;28;20010;-36
2021/09/05 06:44:49;;;;;;;;;;;;;;;13.23;82.00;102077.28;5094095;28;19995;-36
2021/09/05 06:47:14;;;;;;;;;;;;;;;13.30;81.88;102078.06;5094474;28;19908;-36
2021/09/05 06:49:39;;;;;;;;;;;;;;;13.36;82.64;102088.03;5094151;28;19915;-36
2021/09/05 06:52:05;;;;;;;;;;;;;;;13.36;83.60;102090.75;5094338;28;19988;-36
2021/09/05 06:54:30;;;;;;;;;;;;;;;13.34;83.47;102090.16;5094119;28;19992;-36
2021/09/05 06:56:55;;;;;;;;;;;;;;;13.38;82.82;102091.41;5094333;28;20355;-36
2021/09/05 06:59:21;;;;;;;;;;;;;;;13.43;83.08;102094.28;5093881;28;19919;-36
2021/09/05 07:01:46;;;;;;;;;;;;;;;13.48;83.30;102094.47;5094161;28;19927;-36
2021/09/05 07:04:12;;;;;;;;;;;;;;;13.54;82.49;102096.28;5092857;28;19908;-36
2021/09/05 07:06:37;;;;;;;;;;;;;;;13.62;82.69;102097.91;5093926;28;19908;-36
2021/09/05 07:09:02;;;;;;;;;;;;;;;13.70;82.54;102104.94;5093695;28;20373;-36
2021/09/05 07:11:27;;;;;;;;;;;;;;;13.71;82.86;102110.16;5093629;28;20360;-36
2021/09/05 07:13:52;;;;;;;;;;;;;;;13.77;82.96;102116.63;5094249;28;19912;-36
2021/09/05 07:16:18;;;;;;;;;;;;;;;13.79;82.37;102114.50;5094362;28;19974;-36
2021/09/05 07:18:43;;;;;;;;;;;;;;;13.82;83.44;102112.19;5093539;28;19951;-36
2021/09/05 07:21:08;;;;;;;;;;;;;;;13.83;83.36;102108.41;5093964;28;19916;-36
2021/09/05 07:23:33;;;;;;;;;;;;;;;13.86;83.19;102110.69;5093593;28;20344;-36
2021/09/05 07:26:02;;;;;;;;;;;;;;;13.95;82.90;102116.66;5093691;28;19923;-36
2021/09/05 07:28:27;;;;;;;;;;;;;;;14.01;83.57;102118.50;5093741;28;19908;-36
2021/09/05 07:30:52;;;;;;;;;;;;;;;14.10;83.57;102119.03;5093714;28;19961;-36
2021/09/05 07:33:17;;;;;;;;;;;;;;;14.14;82.73;102112.91;5093577;28;19908;-36
2021/09/05 07:35:42;;;;;;;;;;;;;;;14.18;83.42;102119.59;5093618;28;19908;-36
2021/09/05 07:38:08;;;;;;;;;;;;;;;14.23;83.48;102120.81;5094213;28;19908;-36
2021/09/05 07:40:33;;;;;;;;;;;;;;;14.30;83.10;102124.28;5093564;28;19915;-36
2021/09/05 07:42:58;;;;;;;;;;;;;;;14.36;83.29;102124.22;5093914;28;19982;-36
2021/09/05 07:45:23;;;;;;;;;;;;;;;14.49;82.61;102128.72;5093750;28;19951;-36
2021/09/05 07:47:49;;;;;;;;;;;;;;;14.60;82.66;102136.16;5094166;28;19935;-36
2021/09/05 07:50:14;;;;;;;;;;;;;;;14.66;82.35;102132.50;5093186;28;19908;-36
2021/09/05 07:52:39;;;;;;;;;;;;;;;14.73;82.08;102140.59;5093648;28;20244;-36
2021/09/05 07:55:04;;;;;;;;;;;;;;;14.82;81.99;102136.50;5093481;28;20233;-36
2021/09/05 07:57:30;;;;;;;;;;;;;;;14.89;81.43;102131.84;5093077;28;19908;-36
2021/09/05 07:59:55;;;;;;;;;;;;;;;14.98;81.87;102134.22;5093631;28;20004;-36
2021/09/05 08:02:20;;;;;;;;;;;;;;;15.05;82.10;102132.25;5093820;28;19912;-36
2021/09/05 08:04:46;;;;;;;;;;;;;;;15.16;81.80;102137.75;5093641;28;20358;-36
2021/09/05 08:07:11;;;;;;;;;;;;;;;15.17;80.56;102139.41;5093258;28;19915;-36
2021/09/05 08:09:36;;;;;;;;;;;;;;;15.27;80.67;102138.88;5093444;28;20290;-36
2021/09/05 08:12:01;;;;;;;;;;;;;;;15.35;81.11;102143.16;5093818;28;19908;-36
2021/09/05 08:14:26;;;;;;;;;;;;;;;15.43;80.58;102138.22;5093595;28;19953;-36
2021/09/05 08:16:52;;;;;;;;;;;;;;;15.49;80.02;102141.09;5096545;28;19962;-36
2021/09/05 08:19:17;;;;;;;;;;;;;;;15.57;79.88;102144.31;5097047;28;19907;-36
2021/09/05 08:21:42;;;;;;;;;;;;;;;15.67;80.23;102144.63;5097867;28;19969;-36
2021/09/05 08:24:07;;;;;;;;;;;;;;;15.81;79.53;102145.25;5097049;28;19926;-36
2021/09/05 08:26:33;;;;;;;;;;;;;;;15.79;77.72;102143.81;5096951;28;20256;-36
2021/09/05 08:28:58;;;;;;;;;;;;;;;15.84;78.65;102135.75;5097208;28;19977;-36
2021/09/05 08:31:23;;;;;;;;;;;;;;;15.93;78.47;102142.53;5096752;28;19947;-36
2021/09/05 08:33:49;;;;;;;;;;;;;;;16.03;78.89;102144.66;5096574;28;20348;-36
2021/09/05 08:36:14;;;;;;;;;;;;;;;16.16;79.15;102144.44;5096790;28;19947;-36
2021/09/05 08:38:39;;;;;;;;;;;;;;;16.28;78.06;102142.53;5096784;28;19908;-36
2021/09/05 08:41:05;;;;;;;;;;;;;;;16.39;78.31;102151.78;5097026;28;20003;-36
2021/09/05 08:43:30;;;;;;;;;;;;;;;16.54;78.52;102152.13;5096417;28;20352;-36
2021/09/05 08:45:55;;;;;;;;;;;;;;;16.67;77.50;102151.06;5096685;28;19961;-36
2021/09/05 08:48:21;;;;;;;;;;;;;;;16.76;77.57;102157.84;5096504;28;19919;-36
2021/09/05 08:50:47;;;;;;;;;;;;;;;16.79;77.02;102154.66;5096679;28;19915;-36
2021/09/05 08:53:13;;;;;;;;;;;;;;;16.86;77.04;102152.59;5096243;28;20144;-36
2021/09/05 08:55:39;;;;;;;;;;;;;;;16.93;74.56;102153.31;5096912;28;19943;-36
2021/09/05 08:58:04;;;;;;;;;;;;;;;17.03;74.54;102151.81;5096320;28;20004;-36
2021/09/05 09:00:29;;;;;;;;;;;;;;;17.09;74.64;102151.72;5096603;28;19922;-36
2021/09/05 09:02:56;;;;;;;;;;;;;;;17.17;73.02;102153.22;5096296;28;20324;-36
2021/09/05 09:05:30;;;;;;;;;;;;;;;17.27;74.26;102149.84;5096463;28;19915;-36
2021/09/05 09:07:57;;;;;;;;;;;;;;;17.35;72.40;102144.81;5097092;28;19918;-36
2021/09/05 09:10:23;;;;;;;;;;;;;;;17.49;74.16;102156.28;5095874;28;19970;-36
2021/09/05 09:12:49;;;;;;;;;;;;;;;17.58;71.66;102154.00;5095885;28;19908;-36
2021/09/05 09:15:30;;;;;;;;;;;;;;;17.66;72.94;102151.66;5096015;28;20360;-36
2021/09/05 09:17:57;;;;;;;;;;;;;;;17.80;71.78;102148.66;5096789;28;20007;-36
2021/09/05 09:20:33;;;;;;;;;;;;;;;17.95;71.62;102151.63;5095929;28;19908;-36
2021/09/05 09:23:05;;;;;;;;;;;;;;;18.05;72.40;102151.81;5096438;28;20336;-36
2021/09/05 09:25:31;;;;;;;;;;;;;;;18.23;72.56;102146.06;5095608;28;19943;-36
2021/09/05 09:27:56;;;;;;;;;;;;;;;18.36;72.16;102150.38;5094756;28;19907;-36
2021/09/05 09:30:22;;;;;;;;;;;;;;;18.42;70.63;102154.84;5095509;28;19908;-36
2021/09/05 09:32:50;;;;;;;;;;;;;;;18.39;68.53;102151.78;5096365;28;19908;-36
2021/09/05 09:35:15;;;;;;;;;;;;;;;18.46;69.61;102149.69;5096106;28;19907;-36
2021/09/05 09:37:46;;;;;;;;;;;;;;;18.52;69.32;102154.16;5096259;28;19908;-36
2021/09/05 09:40:22;;;;;;;;;;;;;;;18.59;69.26;102151.22;5095574;28;19920;-37
2021/09/05 09:42:47;;;;;;;;;;;;;;;18.74;70.10;102149.59;5096243;28;19908;-36
2021/09/05 09:45:14;;;;;;;;;;;;;;;18.92;70.40;102158.56;5093705;28;19931;-36
2021/09/05 09:47:43;;;;;;;;;;;;;;;19.08;69.99;102151.34;5095658;28;19916;-36
2021/09/05 09:50:09;;;;;;;;;;;;;;;19.19;68.30;102150.38;5095883;28;19908;-36
2021/09/05 09:52:34;;;;;;;;;;;;;;;19.24;69.16;102144.97;5095679;28;19974;-36
2021/09/05 09:55:00;;;;;;;;;;;;;;;19.14;66.17;102155.81;5095422;28;19908;-36
2021/09/05 09:57:25;;;;;;;;;;;;;;;19.11;67.08;102151.66;5094925;28;20021;-36
2021/09/05 09:59:50;;;;;;;;;;;;;;;19.18;66.79;102146.81;5095049;28;19958;-36
2021/09/05 10:02:18;;;;;;;;;;;;;;;19.36;65.96;102144.81;5095136;28;19908;-36
2021/09/05 10:04:45;;;;;;;;;;;;;;;19.51;67.09;102147.69;5094972;28;19908;-36
2021/09/05 10:07:12;;;;;;;;;;;;;;;19.58;64.35;102151.06;5095860;28;19908;-36
2021/09/05 10:09:38;;;;;;;;;;;;;;;19.65;63.92;102151.72;5094144;28;19908;-35
2021/09/05 10:12:04;;;;;;;;;;;;;;;19.67;63.31;102144.06;5095142;28;19908;-35
2021/09/05 10:14:29;;;;;;;;;;;;;;;19.76;65.29;102145.25;5094978;28;19915;-35
2021/09/05 10:16:55;;;;;;;;;;;;;;;19.87;65.61;102139.84;5095059;28;19919;-35
2021/09/05 10:19:20;;;;;;;;;;;;;;;19.94;64.53;102141.25;5094403;28;19908;-36
2021/09/05 10:21:46;;;;;;;;;;;;;;;19.97;64.11;102142.66;5094762;28;20022;-36
2021/09/05 10:24:13;;;;;;;;;;;;;;;20.05;63.42;102145.72;5094703;28;20268;-36
2021/09/05 10:26:57;;;;;;;;;;;;;;;20.17;65.32;102142.81;5094492;28;19908;-37
2021/09/05 10:29:22;;;;;;;;;;;;;;;20.29;62.96;102148.09;5094782;28;19940;-36
2021/09/05 10:31:47;;;;;;;;;;;;;;;20.20;61.26;102149.66;5095183;28;19962;-36
2021/09/05 10:34:38;;;;;;;;;;;;;;;20.27;62.00;102142.06;5094302;28;19908;-36
2021/09/05 10:37:04;;;;;;;;;;;;;;;20.39;61.07;102133.59;5091651;28;19961;-37
2021/09/05 10:39:29;;;;;;;;;;;;;;;20.48;62.91;102134.78;5094109;28;19908;-36
2021/09/05 10:41:55;;;;;;;;;;;;;;;20.57;61.93;102130.44;5094338;28;19908;-36
2021/09/05 10:44:20;;;;;;;;;;;;;;;20.71;60.61;102131.59;5095119;28;19947;-36
2021/09/05 10:46:47;;;;;;;;;;;;;;;20.89;62.06;102138.56;5094319;28;19912;-37
2021/09/05 10:49:12;;;;;;;;;;;;;;;21.02;60.50;102132.53;5094004;28;20396;-36
2021/09/05 10:51:42;;;;;;;;;;;;;;;21.08;58.66;102125.13;5094308;28;19908;-36
2021/09/05 10:54:10;;;;;;;;;;;;;;;21.14;60.02;102132.31;5095023;28;19998;-37
2021/09/05 10:56:42;;;;;;;;;;;;;;;21.14;57.47;102129.56;5094136;28;19960;-36
2021/09/05 10:59:07;;;;;;;;;;;;;;;21.22;58.21;102129.03;5094699;28;20026;-37
2021/09/05 11:01:36;;;;;;;;;;;;;;;21.39;58.24;102133.50;5094114;28;20364;-37
2021/09/05 11:04:16;;;;;;;;;;;;;;;21.31;57.41;102127.44;5094374;28;19908;-36
2021/09/05 11:06:45;;;;;;;;;;;;;;;21.45;59.27;102129.66;5094077;28;19907;-36
2021/09/05 11:09:34;;;;;;;;;;;;;;;21.55;59.53;102129.66;5094306;28;19960;-37
2021/09/05 11:12:03;;;;;;;;;;;;;;;21.72;57.28;102130.25;5031626;28;20429;-37
2021/09/05 11:14:34;;;;;;;;;;;;;;;21.84;56.83;102122.53;5031092;28;19935;-37
2021/09/05 11:17:00;;;;;;;;;;;;;;;21.79;55.52;102122.53;5031288;28;19952;-37
2021/09/05 11:19:25;;;;;;;;;;;;;;;21.80;57.19;102121.41;5031600;28;19948;-37
2021/09/05 11:21:50;;;;;;;;;;;;;;;21.88;56.86;102120.03;5031610;28;19909;-37
2021/09/05 11:24:16;;;;;;;;;;;;;;;21.99;57.83;102123.63;5031431;28;19958;-37
2021/09/05 11:26:59;;;;;;;;;;;;;;;22.04;56.15;102123.59;5031502;28;19967;-37
2021/09/05 11:29:25;;;;;;;;;;;;;;;22.11;56.21;102118.69;5031586;28;20392;-37
2021/09/05 11:31:50;;;;;;;;;;;;;;;22.16;55.84;102118.69;5031613;28;19909;-37
2021/09/05 11:34:16;;;;;;;;;;;;;;;22.32;56.48;102128.56;5031144;28;19909;-37
2021/09/05 11:36:42;;;;;;;;;;;;;;;22.31;53.78;102117.81;5031364;28;19916;-37
2021/09/05 11:39:07;;;;;;;;;;;;;;;22.39;55.17;102117.22;5031021;28;19908;-37
2021/09/05 11:41:32;;;;;;;;;;;;;;;22.38;54.82;102115.59;5031658;28;20353;-37
2021/09/05 11:43:57;;;;;;;;;;;;;;;22.44;55.53;102124.66;5031205;28;20327;-37
2021/09/05 11:46:23;;;;;;;;;;;;;;;22.49;53.27;102116.38;5031125;28;19916;-37
2021/09/05 11:48:55;;;;;;;;;;;;;;;22.42;53.37;102126.88;5058012;28;19912;-37
2021/09/05 11:51:20;;;;;;;;;;;;;;;22.56;53.40;102125.19;5096017;28;19908;-37
2021/09/05 11:53:55;;;;;;;;;;;;;;;22.58;53.33;102131.22;5097504;28;19923;-37
2021/09/05 11:56:21;;;;;;;;;;;;;;;22.66;55.97;102127.91;5098302;28;19912;-37
2021/09/05 11:58:46;;;;;;;;;;;;;;;22.84;54.74;102123.72;5097748;28;19907;-36
2021/09/05 12:01:11;;;;;;;;;;;;;;;22.99;54.88;102125.59;5097959;28;19908;-37
2021/09/05 12:03:38;;;;;;;;;;;;;;;23.00;53.00;102125.31;5098172;28;19908;-37
2021/09/05 12:06:04;;;;;;;;;;;;;;;23.02;51.78;102125.00;5097694;28;19908;-37
2021/09/05 12:08:29;;;;;;;;;;;;;;;23.12;52.60;102130.47;5097320;28;20019;-37
2021/09/05 12:11:05;;;;;;;;;;;;;;;23.19;53.26;102128.25;5098034;28;19908;-37
2021/09/05 12:13:50;;;;;;;;;;;;;;;23.26;52.19;102125.97;5097174;28;20017;-37
2021/09/05 12:16:18;;;;;;;;;;;;;;;23.40;52.52;102120.66;5097449;28;20348;-37
2021/09/05 12:18:57;;;;;;;;;;;;;;;23.51;51.00;102122.22;5096678;28;19908;-37
2021/09/05 12:21:29;;;;;;;;;;;;;;;23.52;52.06;102118.34;5096813;28;19908;-37
2021/09/05 12:23:54;;;;;;;;;;;;;;;23.60;53.38;102127.94;5096939;28;20278;-37
2021/09/05 12:26:21;;;;;;;;;;;;;;;23.71;51.66;102121.25;5096927;28;19912;-37
2021/09/05 12:28:58;;;;;;;;;;;;;;;23.79;48.92;102125.34;5096800;28;19912;-37
2021/09/05 12:31:39;;;;;;;;;;;;;;;23.95;51.85;102123.25;5097574;28;20268;-37
2021/09/05 12:34:04;;;;;;;;;;;;;;;23.83;50.64;102123.66;5096837;28;19908;-37